createdAt,value
2018-02-27T00:01:41.795Z,2.58
2018-02-27T00:04:09.293Z,2.56
2018-02-27T00:06:36.836Z,2.55
2018-02-27T00:09:04.383Z,2.52
2018-02-27T00:11:31.901Z,2.52
2018-02-27T00:13:59.410Z,2.50
2018-02-27T00:16:26.969Z,2.46
2018-02-27T00:18:54.500Z,2.39
2018-02-27T00:21:22.021Z,2.41
2018-02-27T00:23:49.541Z,2.39
2018-02-27T00:26:17.046Z,2.36
2018-02-27T00:28:44.561Z,2.36
2018-02-27T00:31:12.116Z,2.34
2018-02-27T00:33:39.647Z,2.34
2018-02-27T00:36:07.162Z,2.34
2018-02-27T00:38:34.717Z,2.33
2018-02-27T00:41:02.245Z,2.33
2018-02-27T00:43:29.769Z,2.30
2018-02-27T00:45:57.316Z,2.28
2018-02-27T00:48:24.827Z,2.32
2018-02-27T00:50:52.352Z,2.33
2018-02-27T00:53:19.908Z,2.36
2018-02-27T00:55:47.436Z,2.37
2018-02-27T00:58:14.945Z,2.36
2018-02-27T01:00:42.519Z,2.34
2018-02-27T01:03:10.139Z,2.35
2018-02-27T01:05:37.662Z,2.35
2018-02-27T01:08:05.222Z,2.33
2018-02-27T01:10:32.794Z,2.33
2018-02-27T01:13:00.317Z,2.33
2018-02-27T01:15:27.873Z,2.33
2018-02-27T01:17:55.398Z,2.34
2018-02-27T01:20:22.906Z,2.31
2018-02-27T01:22:50.425Z,2.30
2018-02-27T01:25:17.960Z,2.27
2018-02-27T01:27:45.469Z,2.27
2018-02-27T01:30:13.077Z,2.26
2018-02-27T01:32:40.608Z,2.31
2018-02-27T01:35:08.149Z,2.28
2018-02-27T01:37:35.700Z,2.24
2018-02-27T01:40:03.212Z,2.20
2018-02-27T01:42:30.737Z,2.25
2018-02-27T01:44:58.272Z,2.16
2018-02-27T01:47:25.786Z,2.23
2018-02-27T01:49:53.314Z,2.19
2018-02-27T01:52:20.876Z,2.14
2018-02-27T01:54:48.433Z,2.16
2018-02-27T01:57:15.937Z,2.14
2018-02-27T01:59:43.485Z,2.15
2018-02-27T02:02:11.074Z,2.15
2018-02-27T02:04:38.660Z,2.17
2018-02-27T02:07:06.183Z,2.14
2018-02-27T02:09:33.745Z,2.17
2018-02-27T02:12:01.268Z,2.19
2018-02-27T02:14:28.786Z,2.19
2018-02-27T02:16:56.338Z,2.22
2018-02-27T02:19:23.869Z,2.22
2018-02-27T02:21:51.757Z,2.21
2018-02-27T02:24:19.311Z,2.15
2018-02-27T02:26:46.854Z,2.19
2018-02-27T02:29:14.384Z,2.16
2018-02-27T02:31:41.923Z,2.21
2018-02-27T02:34:09.451Z,2.21
2018-02-27T02:36:36.967Z,2.20
2018-02-27T02:39:04.526Z,2.21
2018-02-27T02:41:32.044Z,2.22
2018-02-27T02:43:59.551Z,2.21
2018-02-27T02:46:27.090Z,2.25
2018-02-27T02:48:54.661Z,2.27
2018-02-27T02:51:22.203Z,2.28
2018-02-27T02:53:49.726Z,2.30
2018-02-27T02:56:17.252Z,2.34
2018-02-27T02:58:44.782Z,2.36
2018-02-27T03:01:12.319Z,2.42
2018-02-27T03:03:39.838Z,2.40
2018-02-27T03:06:07.364Z,2.42
2018-02-27T03:08:34.898Z,2.43
2018-02-27T03:11:02.432Z,2.46
2018-02-27T03:13:29.967Z,2.51
2018-02-27T03:15:57.510Z,2.50
2018-02-27T03:18:25.017Z,2.49
2018-02-27T03:20:52.548Z,2.49
2018-02-27T03:23:20.090Z,2.52
2018-02-27T03:25:47.602Z,2.55
2018-02-27T03:28:15.169Z,2.51
2018-02-27T03:30:42.746Z,2.52
2018-02-27T03:33:10.249Z,2.52
2018-02-27T03:35:37.755Z,2.54
2018-02-27T03:38:05.294Z,2.49
2018-02-27T03:40:33.554Z,2.55
2018-02-27T03:43:01.119Z,2.47
2018-02-27T03:45:28.676Z,2.52
2018-02-27T03:50:44.019Z,2.42
2018-02-27T03:53:12.123Z,2.42
2018-02-27T03:55:39.638Z,2.39
2018-02-27T03:58:07.170Z,2.23
2018-02-27T04:00:36.166Z,2.35
2018-02-27T04:03:03.724Z,2.32
2018-02-27T04:05:31.265Z,2.28
2018-02-27T04:07:58.819Z,2.29
2018-02-27T04:10:26.361Z,2.30
2018-02-27T04:12:53.889Z,2.29
2018-02-27T04:15:21.426Z,2.32
2018-02-27T04:17:48.945Z,2.29
2018-02-27T04:20:16.458Z,2.28
2018-02-27T04:22:44.005Z,2.26
2018-02-27T04:25:11.505Z,2.27
2018-02-27T04:27:39.029Z,2.26
2018-02-27T04:30:06.693Z,2.22
2018-02-27T04:32:34.214Z,2.25
2018-02-27T04:35:01.736Z,2.09
2018-02-27T04:37:29.273Z,2.26
2018-02-27T04:39:56.790Z,2.26
2018-02-27T04:42:24.297Z,2.26
2018-02-27T04:44:51.839Z,2.26
2018-02-27T04:47:19.365Z,2.30
2018-02-27T04:49:46.889Z,2.28
2018-02-27T04:52:14.428Z,2.29
2018-02-27T04:54:42.064Z,2.29
2018-02-27T04:57:09.584Z,2.32
2018-02-27T04:59:37.114Z,2.29
2018-02-27T05:02:04.676Z,2.35
2018-02-27T05:04:32.199Z,2.37
2018-02-27T05:06:59.988Z,2.39
2018-02-27T05:09:27.532Z,2.43
2018-02-27T05:11:55.082Z,2.47
2018-02-27T05:14:22.601Z,3.59
2018-02-27T05:16:50.158Z,3.47
2018-02-27T05:19:17.681Z,3.31
2018-02-27T05:21:45.211Z,3.22
2018-02-27T05:24:13.260Z,3.13
2018-02-27T05:26:40.788Z,3.10
2018-02-27T05:29:08.301Z,3.09
2018-02-27T05:31:35.854Z,3.06
2018-02-27T05:34:03.371Z,3.04
2018-02-27T05:36:30.903Z,3.04
2018-02-27T05:38:58.501Z,3.06
2018-02-27T05:41:26.340Z,3.12
2018-02-27T05:43:53.886Z,3.12
2018-02-27T05:46:21.425Z,3.16
2018-02-27T05:48:48.948Z,3.18
2018-02-27T05:51:16.470Z,3.17
2018-02-27T05:53:44.013Z,3.38
2018-02-27T05:56:11.539Z,3.50
2018-02-27T05:58:39.053Z,3.52
2018-02-27T06:01:06.585Z,3.59
2018-02-27T06:03:34.110Z,3.58
2018-02-27T06:06:01.649Z,3.63
2018-02-27T06:08:29.223Z,3.65
2018-02-27T06:10:56.955Z,3.63
2018-02-27T06:13:24.463Z,3.62
2018-02-27T06:15:52.034Z,3.63
2018-02-27T06:18:19.536Z,3.66
2018-02-27T06:20:47.062Z,3.66
2018-02-27T06:23:14.602Z,3.69
2018-02-27T06:25:42.118Z,3.71
2018-02-27T06:28:09.648Z,3.74
2018-02-27T06:30:37.231Z,3.76
2018-02-27T06:33:04.776Z,3.73
2018-02-27T06:35:32.292Z,3.75
2018-02-27T06:37:59.840Z,3.76
2018-02-27T06:40:27.350Z,3.77
2018-02-27T06:42:55.013Z,3.79
2018-02-27T06:45:22.548Z,3.80
2018-02-27T06:47:50.101Z,3.82
2018-02-27T06:50:17.625Z,3.83
2018-02-27T06:52:45.297Z,3.85
2018-02-27T06:55:12.815Z,3.86
2018-02-27T06:57:40.366Z,3.91
2018-02-27T07:00:07.910Z,3.92
2018-02-27T07:02:35.443Z,3.97
2018-02-27T07:05:02.958Z,4.02
2018-02-27T07:07:30.517Z,4.08
2018-02-27T07:09:58.045Z,4.16
2018-02-27T07:12:25.552Z,4.25
2018-02-27T07:14:53.076Z,4.28
2018-02-27T07:17:20.608Z,4.37
2018-02-27T07:19:48.116Z,4.48
2018-02-27T07:22:15.683Z,4.56
2018-02-27T07:24:43.246Z,4.65
2018-02-27T07:27:10.770Z,4.73
2018-02-27T07:29:38.310Z,4.82
2018-02-27T07:32:05.844Z,4.87
2018-02-27T07:34:33.352Z,4.96
2018-02-27T07:37:00.866Z,5.01
2018-02-27T07:39:28.421Z,5.01
2018-02-27T07:41:55.924Z,5.12
2018-02-27T07:44:23.433Z,5.26
2018-02-27T07:46:50.958Z,5.31
2018-02-27T07:49:18.492Z,5.45
2018-02-27T07:51:46.023Z,5.59
2018-02-27T07:54:13.556Z,5.79
2018-02-27T07:56:41.163Z,6.10
2018-02-27T07:59:08.686Z,6.38
2018-02-27T08:01:36.226Z,6.60
2018-02-27T08:04:03.818Z,6.87
2018-02-27T08:06:31.335Z,6.96
2018-02-27T08:08:58.864Z,7.02
2018-02-27T08:11:26.439Z,6.99
2018-02-27T08:13:53.972Z,7.06
2018-02-27T08:16:21.514Z,7.13
2018-02-27T08:18:49.049Z,7.19
2018-02-27T08:21:16.586Z,7.22
2018-02-27T08:23:44.123Z,7.13
2018-02-27T08:26:11.637Z,6.79
2018-02-27T08:28:39.224Z,6.87
2018-02-27T08:31:06.737Z,6.73
2018-02-27T08:33:34.249Z,6.61
2018-02-27T08:36:01.777Z,6.62
2018-02-27T08:38:29.351Z,6.69
2018-02-27T08:40:56.864Z,6.83
2018-02-27T08:43:24.444Z,6.90
2018-02-27T08:45:51.993Z,6.98
2018-02-27T08:48:19.506Z,7.08
2018-02-27T08:50:47.026Z,7.09
2018-02-27T08:53:14.569Z,7.16
2018-02-27T08:55:42.113Z,7.25
2018-02-27T08:58:09.630Z,7.44
2018-02-27T09:00:37.184Z,7.73
2018-02-27T09:03:04.725Z,7.79
2018-02-27T09:05:32.414Z,7.75
2018-02-27T09:07:59.980Z,7.77
2018-02-27T09:10:27.511Z,7.82
2018-02-27T09:12:55.027Z,7.74
2018-02-27T09:15:22.573Z,7.77
2018-02-27T09:17:50.116Z,8.03
2018-02-27T09:20:17.655Z,8.27
2018-02-27T09:22:45.242Z,8.40
2018-02-27T09:25:12.789Z,8.65
2018-02-27T09:27:40.324Z,9.11
2018-02-27T09:30:08.020Z,9.40
2018-02-27T09:32:35.542Z,9.89
2018-02-27T09:35:03.113Z,10.76
2018-02-27T09:37:30.709Z,11.83
2018-02-27T09:39:58.210Z,12.52
2018-02-27T09:42:25.740Z,13.65
2018-02-27T09:44:53.533Z,14.54
2018-02-27T09:47:21.076Z,15.50
2018-02-27T09:49:48.617Z,16.42
2018-02-27T09:52:16.208Z,16.44
2018-02-27T09:54:43.720Z,17.29
2018-02-27T09:57:11.241Z,17.95
2018-02-27T09:59:38.793Z,18.75
2018-02-27T10:02:06.449Z,19.44
2018-02-27T10:04:33.973Z,20.09
2018-02-27T10:07:01.504Z,20.94
2018-02-27T10:09:29.056Z,21.36
2018-02-27T10:11:56.586Z,21.81
2018-02-27T10:14:24.108Z,22.23
2018-02-27T10:16:51.672Z,22.37
2018-02-27T10:19:19.238Z,22.70
2018-02-27T10:21:46.787Z,23.09
2018-02-27T10:24:14.353Z,23.53
2018-02-27T10:26:41.883Z,23.88
2018-02-27T10:29:09.417Z,24.12
2018-02-27T10:31:37.004Z,24.78
2018-02-27T10:34:04.641Z,24.83
2018-02-27T10:36:32.169Z,25.32
2018-02-27T10:38:59.741Z,25.67
2018-02-27T10:41:27.271Z,25.69
2018-02-27T10:43:54.802Z,25.61
2018-02-27T10:46:22.389Z,25.89
2018-02-27T10:48:49.909Z,25.33
2018-02-27T10:51:17.460Z,24.26
2018-02-27T10:53:45.005Z,23.69
2018-02-27T10:56:12.527Z,22.72
2018-02-27T10:58:40.037Z,21.70
2018-02-27T11:01:24.085Z,20.72
2018-02-27T11:03:51.631Z,19.59
2018-02-27T11:06:19.151Z,18.82
2018-02-27T11:08:46.700Z,18.49
2018-02-27T11:11:14.521Z,18.03
2018-02-27T11:13:42.049Z,17.65
2018-02-27T11:16:09.586Z,17.50
2018-02-27T11:18:37.124Z,17.52
2018-02-27T11:21:04.645Z,17.37
2018-02-27T11:23:32.186Z,17.57
2018-02-27T11:25:59.688Z,18.75
2018-02-27T11:28:27.198Z,19.95
2018-02-27T11:30:54.768Z,19.71
2018-02-27T11:33:22.291Z,20.01
2018-02-27T11:35:49.805Z,19.17
2018-02-27T11:38:17.351Z,18.51
2018-02-27T11:40:44.886Z,17.71
2018-02-27T11:43:12.415Z,17.26
2018-02-27T11:45:39.981Z,16.95
2018-02-27T11:48:07.512Z,16.93
2018-02-27T11:50:35.049Z,16.98
2018-02-27T11:53:02.637Z,17.11
2018-02-27T11:55:30.741Z,17.44
2018-02-27T11:57:58.265Z,18.45
2018-02-27T12:00:25.819Z,18.39
2018-02-27T12:02:53.330Z,17.59
2018-02-27T12:05:20.984Z,17.53
2018-02-27T12:07:48.624Z,17.35
2018-02-27T12:10:16.218Z,17.24
2018-02-27T12:12:43.750Z,17.30
2018-02-27T12:15:11.312Z,17.31
2018-02-27T12:17:38.880Z,17.31
2018-02-27T12:20:06.579Z,17.26
2018-02-27T12:22:34.180Z,17.11
2018-02-27T12:25:01.761Z,17.13
2018-02-27T12:27:29.313Z,16.92
2018-02-27T12:29:56.907Z,16.62
2018-02-27T12:32:24.441Z,16.69
2018-02-27T12:34:51.986Z,16.27
2018-02-27T12:37:19.496Z,16.48
2018-02-27T12:39:47.037Z,16.19
2018-02-27T12:42:14.556Z,16.20
2018-02-27T12:44:42.334Z,16.16
2018-02-27T12:47:09.952Z,16.01
2018-02-27T12:49:37.493Z,16.08
2018-02-27T12:52:05.025Z,16.08
2018-02-27T12:54:32.792Z,16.07
2018-02-27T12:57:00.788Z,16.07
2018-02-27T12:59:28.576Z,15.90
2018-02-27T13:01:56.145Z,15.90
2018-02-27T13:04:23.791Z,15.95
2018-02-27T13:06:51.334Z,15.90
2018-02-27T13:09:18.996Z,15.97
2018-02-27T13:11:46.986Z,15.98
2018-02-27T13:14:15.125Z,15.99
2018-02-27T13:16:42.718Z,15.99
2018-02-27T13:19:10.255Z,15.95
2018-02-27T13:21:37.866Z,15.90
2018-02-27T13:24:07.043Z,15.76
2018-02-27T13:26:34.622Z,15.52
2018-02-27T13:29:02.188Z,15.39
2018-02-27T13:31:29.825Z,15.20
2018-02-27T13:33:57.358Z,15.11
2018-02-27T13:36:24.915Z,15.01
2018-02-27T13:38:52.480Z,14.84
2018-02-27T13:41:19.988Z,14.72
2018-02-27T13:43:47.509Z,14.46
2018-02-27T13:46:15.037Z,14.13
2018-02-27T13:48:45.911Z,13.89
2018-02-27T13:51:10.106Z,13.70
2018-02-27T13:53:37.654Z,13.52
2018-02-27T13:56:05.176Z,13.35
2018-02-27T13:58:32.741Z,13.18
2018-02-27T14:01:00.355Z,13.01
2018-02-27T14:03:27.899Z,12.81
2018-02-27T14:05:55.507Z,12.62
2018-02-27T14:08:23.161Z,12.48
2018-02-27T14:10:50.705Z,12.32
2018-02-27T14:13:18.237Z,12.14
2018-02-27T14:15:45.821Z,11.98
2018-02-27T14:18:13.345Z,11.86
2018-02-27T14:20:40.861Z,11.74
2018-02-27T14:23:08.431Z,11.61
2018-02-27T14:25:35.977Z,11.38
2018-02-27T14:28:03.515Z,11.27
2018-02-27T14:30:31.058Z,11.12
2018-02-27T14:32:58.575Z,10.94
2018-02-27T14:35:26.095Z,10.85
2018-02-27T14:37:53.653Z,10.75
2018-02-27T14:40:21.193Z,10.65
2018-02-27T14:42:49.628Z,10.58
2018-02-27T14:45:18.134Z,10.52
2018-02-27T14:47:45.656Z,10.42
2018-02-27T14:50:13.165Z,10.46
2018-02-27T14:52:41.099Z,10.42
2018-02-27T14:55:08.878Z,10.40
2018-02-27T14:57:36.683Z,10.33
2018-02-27T15:00:08.024Z,10.33
2018-02-27T15:02:35.534Z,10.31
2018-02-27T15:05:03.153Z,10.27
2018-02-27T15:07:31.449Z,10.15
2018-02-27T15:09:58.986Z,10.02
2018-02-27T15:12:27.533Z,9.93
2018-02-27T15:14:55.125Z,9.98
2018-02-27T15:17:24.164Z,10.19
2018-02-27T15:19:51.681Z,10.03
2018-02-27T15:22:19.384Z,9.89
2018-02-27T15:24:46.928Z,9.69
2018-02-27T15:27:14.473Z,9.62
2018-02-27T15:29:42.018Z,9.49
2018-02-27T15:32:09.580Z,9.24
2018-02-27T15:34:37.113Z,9.27
2018-02-27T15:37:04.656Z,9.14
2018-02-27T15:39:32.667Z,9.03
2018-02-27T15:42:00.206Z,8.93
2018-02-27T15:44:27.901Z,8.81
2018-02-27T15:46:55.489Z,8.70
2018-02-27T15:49:23.280Z,8.60
2018-02-27T15:51:50.794Z,8.51
2018-02-27T15:54:18.345Z,8.43
2018-02-27T15:56:45.883Z,8.35
2018-02-27T15:59:13.438Z,8.27
2018-02-27T16:01:40.995Z,8.25
2018-02-27T16:04:08.533Z,8.10
2018-02-27T16:06:36.128Z,8.00
2018-02-27T16:09:03.716Z,7.93
2018-02-27T16:11:31.249Z,7.83
2018-02-27T16:13:59.426Z,7.71
2018-02-27T16:16:33.477Z,7.62
2018-02-27T16:19:01.086Z,7.51
2018-02-27T16:21:28.677Z,7.41
2018-02-27T16:23:56.258Z,7.30
2018-02-27T16:26:23.951Z,7.28
2018-02-27T16:28:51.521Z,7.18
2018-02-27T16:31:19.094Z,7.04
2018-02-27T16:33:46.652Z,7.05
2018-02-27T16:36:14.193Z,6.97
2018-02-27T16:38:42.189Z,6.90
2018-02-27T16:41:09.847Z,6.82
2018-02-27T16:43:37.393Z,6.79
2018-02-27T16:46:06.014Z,6.73
2018-02-27T16:48:33.581Z,6.74
2018-02-27T16:51:01.215Z,6.67
2018-02-27T16:53:28.799Z,6.66
2018-02-27T16:55:56.341Z,6.59
2018-02-27T16:58:23.871Z,6.60
2018-02-27T17:00:51.412Z,6.57
2018-02-27T17:03:18.981Z,6.46
2018-02-27T17:05:46.524Z,6.47
2018-02-27T17:08:14.978Z,6.41
2018-02-27T17:10:42.501Z,6.43
2018-02-27T17:13:10.026Z,6.46
2018-02-27T17:15:37.589Z,6.41
2018-02-27T17:18:05.270Z,6.38
2018-02-27T17:20:32.862Z,6.32
2018-02-27T17:23:00.701Z,6.39
2018-02-27T17:25:28.217Z,6.33
2018-02-27T17:27:55.790Z,6.24
2018-02-27T17:30:23.385Z,6.15
2018-02-27T17:32:50.926Z,6.09
2018-02-27T17:35:18.458Z,5.94
2018-02-27T17:37:46.070Z,5.97
2018-02-27T17:40:13.654Z,5.92
2018-02-27T17:42:41.169Z,5.84
2018-02-27T17:45:08.714Z,5.78
2018-02-27T17:47:36.325Z,5.69
2018-02-27T17:50:03.873Z,5.70
2018-02-27T17:52:31.433Z,5.65
2018-02-27T17:54:59.862Z,5.60
2018-02-27T17:57:27.428Z,6.02
2018-02-27T17:59:54.992Z,6.52
2018-02-27T18:02:23.446Z,6.18
2018-02-27T18:04:51.003Z,6.12
2018-02-27T18:07:18.589Z,5.96
2018-02-27T18:09:46.255Z,5.90
2018-02-27T18:12:13.789Z,5.80
2018-02-27T18:14:41.565Z,5.79
2018-02-27T18:17:09.586Z,5.69
2018-02-27T18:19:37.117Z,5.68
2018-02-27T18:22:05.117Z,5.56
2018-02-27T18:24:32.746Z,5.60
2018-02-27T18:27:00.318Z,5.55
2018-02-27T18:29:27.874Z,5.43
2018-02-27T18:31:56.269Z,5.46
2018-02-27T18:34:23.974Z,5.47
2018-02-27T18:36:52.283Z,5.40
2018-02-27T18:39:20.756Z,5.42
2018-02-27T18:41:48.346Z,5.36
2018-02-27T18:44:15.986Z,5.35
2018-02-27T18:46:43.537Z,5.29
2018-02-27T18:49:11.109Z,5.30
2018-02-27T18:51:38.690Z,5.29
2018-02-27T18:54:06.231Z,5.34
2018-02-27T18:56:33.807Z,5.31
2018-02-27T18:59:01.390Z,5.43
2018-02-27T19:01:29.087Z,5.45
2018-02-27T19:03:56.662Z,5.48
2018-02-27T19:06:24.218Z,5.41
2018-02-27T19:08:52.034Z,5.35
2018-02-27T19:11:19.672Z,5.32
2018-02-27T19:13:47.242Z,5.28
2018-02-27T19:16:14.833Z,5.24
2018-02-27T19:18:42.450Z,5.20
2018-02-27T19:21:09.984Z,5.19
2018-02-27T19:23:37.562Z,5.17
2018-02-27T19:26:05.147Z,5.16
2018-02-27T19:28:33.253Z,5.13
2018-02-27T19:31:00.809Z,5.12
2018-02-27T19:33:28.413Z,5.13
2018-02-27T19:35:56.111Z,5.12
2018-02-27T19:38:23.696Z,5.12
2018-02-27T19:40:51.249Z,5.06
2018-02-27T19:43:18.805Z,5.07
2018-02-27T19:45:46.377Z,5.07
2018-02-27T19:48:13.961Z,5.02
2018-02-27T19:50:42.499Z,4.99
2018-02-27T19:53:10.106Z,4.98
2018-02-27T19:55:37.711Z,4.92
2018-02-27T19:58:05.648Z,4.91
2018-02-27T20:00:34.218Z,4.90
2018-02-27T20:03:02.640Z,4.92
2018-02-27T20:05:30.174Z,4.89
2018-02-27T20:07:58.392Z,4.85
2018-02-27T20:10:25.971Z,4.84
2018-02-27T20:12:53.560Z,4.84
2018-02-27T20:15:21.167Z,4.83
2018-02-27T20:17:54.206Z,4.81
2018-02-27T20:20:21.906Z,4.80
2018-02-27T20:22:54.998Z,4.81
2018-02-27T20:25:22.573Z,4.78
2018-02-27T20:27:50.129Z,4.75
2018-02-27T20:30:17.704Z,4.77
2018-02-27T20:32:46.066Z,4.76
2018-02-27T20:35:13.607Z,4.77
2018-02-27T20:37:41.186Z,4.73
2018-02-27T20:40:08.746Z,4.69
2018-02-27T20:42:36.295Z,4.71
2018-02-27T20:45:03.854Z,4.69
2018-02-27T20:47:31.407Z,4.68
2018-02-27T20:49:58.941Z,4.69
2018-02-27T20:52:26.526Z,4.68
2018-02-27T20:54:54.111Z,4.66
2018-02-27T20:57:21.667Z,4.62
2018-02-27T20:59:49.243Z,4.60
2018-02-27T21:02:16.844Z,4.56
2018-02-27T21:04:44.423Z,4.53
2018-02-27T21:07:12.031Z,4.50
2018-02-27T21:09:39.595Z,4.47
2018-02-27T21:12:07.160Z,4.43
2018-02-27T21:14:34.719Z,4.41
2018-02-27T21:17:02.339Z,4.37
2018-02-27T21:19:29.912Z,4.38
2018-02-27T21:21:57.490Z,4.38
2018-02-27T21:24:25.195Z,4.40
2018-02-27T21:26:52.762Z,4.41
2018-02-27T21:29:20.327Z,4.40
2018-02-27T21:31:47.910Z,4.38
2018-02-27T21:34:15.450Z,4.35
2018-02-27T21:36:42.996Z,4.40
2018-02-27T21:39:10.579Z,4.38
2018-02-27T21:41:38.897Z,4.28
2018-02-27T21:44:06.470Z,4.35
2018-02-27T21:46:34.081Z,4.31
2018-02-27T21:49:01.793Z,4.30
2018-02-27T21:51:29.376Z,4.29
2018-02-27T21:53:57.262Z,4.22
2018-02-27T21:56:24.826Z,4.29
2018-02-27T21:58:52.376Z,4.27
2018-02-27T22:01:20.073Z,4.26
2018-02-27T22:03:47.611Z,4.24
2018-02-27T22:06:15.178Z,4.24
2018-02-27T22:08:42.783Z,4.23
2018-02-27T22:11:10.330Z,4.23
2018-02-27T22:13:37.842Z,4.23
2018-02-27T22:16:05.453Z,4.13
2018-02-27T22:18:32.999Z,4.22
2018-02-27T22:21:00.561Z,4.26
2018-02-27T22:23:28.154Z,4.26
2018-02-27T22:25:55.711Z,4.23
2018-02-27T22:28:23.296Z,4.25
2018-02-27T22:30:51.188Z,4.18
2018-02-27T22:33:18.746Z,4.23
2018-02-27T22:35:46.291Z,4.22
2018-02-27T22:38:13.866Z,4.16
2018-02-27T22:40:41.393Z,4.20
2018-02-27T22:43:09.002Z,4.19
2018-02-27T22:45:36.615Z,4.11
2018-02-27T22:48:04.164Z,4.14
2018-02-27T22:50:31.719Z,4.08
2018-02-27T22:52:59.336Z,4.06
2018-02-27T22:55:26.855Z,4.11
2018-02-27T22:57:54.488Z,4.05
2018-02-27T23:00:33.802Z,4.09
2018-02-27T23:03:01.332Z,4.06
2018-02-27T23:05:28.917Z,4.08
2018-02-27T23:07:56.516Z,4.07
2018-02-27T23:10:24.072Z,4.04
2018-02-27T23:12:51.614Z,4.09
2018-02-27T23:15:19.250Z,4.12
2018-02-27T23:17:46.763Z,4.14
2018-02-27T23:20:14.387Z,4.16
2018-02-27T23:22:42.057Z,4.11
2018-02-27T23:25:21.791Z,4.15
2018-02-27T23:27:52.735Z,4.13
2018-02-27T23:30:20.690Z,4.10
2018-02-27T23:32:49.993Z,4.15
2018-02-27T23:35:25.708Z,4.15
2018-02-27T23:37:53.291Z,4.14
2018-02-27T23:40:20.819Z,4.10
2018-02-27T23:42:48.366Z,4.18
2018-02-27T23:45:15.928Z,4.17
2018-02-27T23:47:43.820Z,4.16
2018-02-27T23:50:11.395Z,4.17
2018-02-27T23:52:39.042Z,4.19
2018-02-27T23:55:06.687Z,4.15
2018-02-27T23:57:34.317Z,4.12
